createdAt,value
2022-09-28T00:00:08.450Z,28.8
2022-09-28T00:01:10.660Z,28.7
2022-09-28T00:02:13.238Z,28.8
2022-09-28T00:03:16.432Z,29
2022-09-28T00:04:18.913Z,28.8
2022-09-28T00:05:21.397Z,28.7
2022-09-28T00:06:23.939Z,29
2022-09-28T00:07:26.425Z,29
2022-09-28T00:08:28.617Z,28.8
2022-09-28T00:09:30.867Z,29.1
2022-09-28T00:10:33.360Z,28.8
2022-09-28T00:11:35.834Z,28.8
2022-09-28T00:12:38.328Z,28.9
2022-09-28T00:13:40.821Z,28.7
2022-09-28T00:14:43.020Z,28.5
2022-09-28T00:15:45.198Z,28.8
2022-09-28T00:16:47.736Z,28.6
2022-09-28T00:17:50.554Z,28.8
2022-09-28T00:18:53.042Z,28.9
2022-09-28T00:19:55.532Z,29
2022-09-28T00:20:57.450Z,29
2022-09-28T00:21:59.670Z,29.1
2022-09-28T00:23:01.863Z,28.6
2022-09-28T00:24:03.515Z,28.8
2022-09-28T00:25:05.439Z,28.6
2022-09-28T00:26:07.925Z,28.8
2022-09-28T00:27:10.123Z,29
2022-09-28T00:28:12.315Z,29
2022-09-28T00:29:14.812Z,28.7
2022-09-28T00:30:17.483Z,29.2
2022-09-28T00:31:20.050Z,29.2
2022-09-28T00:32:22.543Z,28.6
2022-09-28T00:33:24.743Z,29
2022-09-28T00:34:27.342Z,29.2
2022-09-28T00:35:29.279Z,29.1
2022-09-28T00:36:31.743Z,29.2
2022-09-28T00:37:34.236Z,29
2022-09-28T00:38:36.424Z,28.9
2022-09-28T00:39:38.629Z,28.7
2022-09-28T00:40:40.597Z,28.9
2022-09-28T00:41:43.072Z,29
2022-09-28T00:42:45.266Z,29.2
2022-09-28T00:43:47.496Z,29.2
2022-09-28T00:44:49.688Z,29.1
2022-09-28T00:45:52.212Z,29.2
2022-09-28T00:46:55.148Z,29
2022-09-28T00:47:57.641Z,28.8
2022-09-28T00:48:59.838Z,29.3
2022-09-28T00:50:02.332Z,28.6
2022-09-28T00:51:04.232Z,29.2
2022-09-28T00:52:06.436Z,29.2
2022-09-28T00:53:08.926Z,29.2
2022-09-28T00:54:11.401Z,29.1
2022-09-28T00:55:13.597Z,29.1
2022-09-28T00:56:16.080Z,28.9
2022-09-28T00:57:18.312Z,29.2
2022-09-28T00:58:20.219Z,28.8
2022-09-28T00:59:22.427Z,29
2022-09-28T01:00:24.906Z,29
2022-09-28T01:01:27.392Z,29
2022-09-28T01:02:30.063Z,29.1
2022-09-28T01:03:32.974Z,29
2022-09-28T01:04:35.457Z,29.2
2022-09-28T01:05:37.946Z,29
2022-09-28T01:06:40.417Z,29.2
2022-09-28T01:07:42.892Z,29.3
2022-09-28T01:08:45.394Z,29.3
2022-09-28T01:09:47.871Z,28.9
2022-09-28T01:10:49.773Z,29
2022-09-28T01:11:51.720Z,28.9
2022-09-28T01:12:53.993Z,28.9
2022-09-28T01:13:56.177Z,28.8
2022-09-28T01:14:58.387Z,29.1
2022-09-28T01:16:00.917Z,29.1
2022-09-28T01:17:02.991Z,29.1
2022-09-28T01:18:04.905Z,29.1
2022-09-28T01:19:07.375Z,29.2
2022-09-28T01:20:09.579Z,29.2
2022-09-28T01:21:12.069Z,29
2022-09-28T01:22:14.542Z,28.8
2022-09-28T01:23:17.031Z,29.1
2022-09-28T01:24:19.547Z,28.9
2022-09-28T01:25:22.018Z,29.5
2022-09-28T01:26:24.488Z,29
2022-09-28T01:27:26.698Z,29.2
2022-09-28T01:28:29.196Z,29.1
2022-09-28T01:29:31.114Z,29.1
2022-09-28T01:30:33.347Z,28.9
2022-09-28T01:31:35.883Z,29.2
2022-09-28T01:32:38.705Z,29.1
2022-09-28T01:33:40.896Z,28.7
2022-09-28T01:34:43.088Z,29.2
2022-09-28T01:35:45.021Z,29.1
2022-09-28T01:36:47.513Z,28.6
2022-09-28T01:37:49.716Z,29
2022-09-28T01:38:52.029Z,28.9
2022-09-28T01:39:54.236Z,28.8
2022-09-28T01:40:56.253Z,29.2
2022-09-28T01:41:58.840Z,29.1
2022-09-28T01:43:01.307Z,28.9
2022-09-28T01:44:03.793Z,28.9
2022-09-28T01:45:06.282Z,28.8
2022-09-28T01:46:08.293Z,28.8
2022-09-28T01:47:11.212Z,29.1
2022-09-28T01:48:13.688Z,29
2022-09-28T01:49:15.654Z,28.8
2022-09-28T01:50:18.273Z,28.9
2022-09-28T01:51:20.462Z,29.2
2022-09-28T01:52:22.666Z,29
2022-09-28T01:53:24.592Z,28.9
2022-09-28T01:54:27.065Z,29.4
2022-09-28T01:55:29.289Z,29.2
2022-09-28T01:56:31.757Z,28.7
2022-09-28T01:57:33.688Z,28.9
2022-09-28T01:58:35.605Z,29
2022-09-28T01:59:37.557Z,28.8
2022-09-28T02:00:39.789Z,29
2022-09-28T02:01:42.744Z,29.1
2022-09-28T02:02:45.239Z,29.2
2022-09-28T02:03:47.712Z,29.1
2022-09-28T02:04:50.180Z,29.1
2022-09-28T02:05:52.674Z,29.1
2022-09-28T02:06:55.149Z,29
2022-09-28T02:07:57.650Z,29.1
2022-09-28T02:08:59.688Z,29.1
2022-09-28T02:10:01.898Z,28.9
2022-09-28T02:11:04.393Z,29.1
2022-09-28T02:12:06.356Z,28.9
2022-09-28T02:13:08.562Z,29.1
2022-09-28T02:14:10.461Z,29
2022-09-28T02:15:12.678Z,29
2022-09-28T02:16:14.939Z,29.1
2022-09-28T02:17:17.472Z,29.1
2022-09-28T02:18:19.955Z,29.2
2022-09-28T02:19:21.875Z,29.3
2022-09-28T02:20:24.341Z,29.1
2022-09-28T02:21:26.551Z,29.1
2022-09-28T02:22:29.019Z,29
2022-09-28T02:23:31.510Z,29.3
2022-09-28T02:24:33.994Z,29.1
2022-09-28T02:25:36.190Z,29.2
2022-09-28T02:26:38.396Z,28.8
2022-09-28T02:27:40.881Z,29
2022-09-28T02:28:43.056Z,29.2
2022-09-28T02:29:44.980Z,29.2
2022-09-28T02:30:47.465Z,29
2022-09-28T02:31:49.394Z,29.3
2022-09-28T02:32:51.983Z,29.2
2022-09-28T02:33:54.491Z,29.1
2022-09-28T02:34:56.951Z,28.6
2022-09-28T02:35:59.444Z,29
2022-09-28T02:37:01.933Z,29
2022-09-28T02:38:04.132Z,29
2022-09-28T02:39:06.632Z,29.1
2022-09-28T02:40:09.116Z,29.1
2022-09-28T02:41:11.308Z,28.9
2022-09-28T02:42:13.526Z,29.2
2022-09-28T02:43:15.443Z,29
2022-09-28T02:44:17.924Z,29.3
2022-09-28T02:45:20.142Z,29
2022-09-28T02:46:22.630Z,29
2022-09-28T02:47:24.803Z,29
2022-09-28T02:48:42.964Z,29
2022-09-28T02:49:32.693Z,29.1
2022-09-28T02:50:35.658Z,29.1
2022-09-28T02:51:37.853Z,28.9
2022-09-28T02:52:40.047Z,29
2022-09-28T02:53:42.238Z,28.9
2022-09-28T02:54:44.465Z,29
2022-09-28T02:55:46.659Z,29.1
2022-09-28T02:56:49.146Z,29.1
2022-09-28T02:57:51.633Z,29.3
2022-09-28T02:58:53.256Z,28.9
2022-09-28T02:59:55.472Z,29.1
2022-09-28T03:00:57.425Z,29.1
2022-09-28T03:01:59.774Z,29.1
2022-09-28T03:03:02.596Z,29
2022-09-28T03:04:05.098Z,29.1
2022-09-28T03:05:07.562Z,28.8
2022-09-28T03:06:10.054Z,29
2022-09-28T03:07:12.532Z,29
2022-09-28T03:08:14.738Z,28.8
2022-09-28T03:09:17.255Z,29
2022-09-28T03:10:19.637Z,29
2022-09-28T03:11:21.872Z,29
2022-09-28T03:12:24.352Z,28.8
2022-09-28T03:13:26.894Z,28.7
2022-09-28T03:14:29.380Z,29
2022-09-28T03:15:31.850Z,28.8
2022-09-28T03:16:33.558Z,28.8
2022-09-28T03:17:36.061Z,28.9
2022-09-28T03:18:38.615Z,28.8
2022-09-28T03:19:40.581Z,28.7
2022-09-28T03:20:42.484Z,28.8
2022-09-28T03:21:44.819Z,28.8
2022-09-28T03:23:00.463Z,28.7
2022-09-28T03:23:52.639Z,28.5
2022-09-28T03:24:54.910Z,28.4
2022-09-28T03:25:57.124Z,28.8
2022-09-28T03:26:59.622Z,28.7
2022-09-28T03:28:01.827Z,28.7
2022-09-28T03:29:04.326Z,28.7
2022-09-28T03:30:06.789Z,28.3
2022-09-28T03:31:08.762Z,28.3
2022-09-28T03:32:11.591Z,28.7
2022-09-28T03:33:14.081Z,28.5
2022-09-28T03:34:16.000Z,28.6
2022-09-28T03:35:17.966Z,28.5
2022-09-28T03:36:20.440Z,28.7
2022-09-28T03:37:22.927Z,28.4
2022-09-28T03:38:25.127Z,28.8
2022-09-28T03:39:27.596Z,28.8
2022-09-28T03:40:30.243Z,28.8
2022-09-28T03:41:33.241Z,28.7
2022-09-28T03:42:35.793Z,28.3
2022-09-28T03:43:38.262Z,28.6
2022-09-28T03:44:40.760Z,28.5
2022-09-28T03:45:43.300Z,28.5
2022-09-28T03:46:45.795Z,28.3
2022-09-28T03:47:48.260Z,28.5
2022-09-28T03:48:50.938Z,28.4
2022-09-28T03:49:53.397Z,28.7
2022-09-28T03:50:55.945Z,28.7
2022-09-28T03:51:58.157Z,28.5
2022-09-28T03:53:00.677Z,28.3
2022-09-28T03:54:02.879Z,28.7
2022-09-28T03:55:05.084Z,28.5
2022-09-28T03:56:07.562Z,28.4
2022-09-28T03:57:09.786Z,28.2
2022-09-28T03:58:11.953Z,28.6
2022-09-28T03:59:14.501Z,28.5
2022-09-28T04:00:17.357Z,28.3
2022-09-28T04:01:20.025Z,28.4
2022-09-28T04:02:22.949Z,28.3
2022-09-28T04:03:25.800Z,28.5
2022-09-28T04:04:28.006Z,28.6
2022-09-28T04:05:30.491Z,28.2
2022-09-28T04:06:32.981Z,28.3
2022-09-28T04:07:35.446Z,28.6
2022-09-28T04:08:37.651Z,28.4
2022-09-28T04:09:40.127Z,28.5
2022-09-28T04:10:42.598Z,28.3
2022-09-28T04:12:02.638Z,28.6
2022-09-28T04:12:49.852Z,28.5
2022-09-28T04:13:52.369Z,28.3
2022-09-28T04:14:54.841Z,28.1
2022-09-28T04:15:57.106Z,28.4
2022-09-28T04:16:59.911Z,28.2
2022-09-28T04:18:02.099Z,28.4
2022-09-28T04:19:03.732Z,28.2
2022-09-28T04:20:06.001Z,28.5
2022-09-28T04:21:08.475Z,28.4
2022-09-28T04:22:11.000Z,28.4
2022-09-28T04:23:13.466Z,28.5
2022-09-28T04:24:15.682Z,28.3
2022-09-28T04:25:17.888Z,28.2
2022-09-28T04:26:20.102Z,28.4
2022-09-28T04:27:22.006Z,28.4
2022-09-28T04:28:24.202Z,28.5
2022-09-28T04:29:26.704Z,28.5
2022-09-28T04:30:29.237Z,28.4
2022-09-28T04:31:31.841Z,28.3
2022-09-28T04:32:34.779Z,28.3
2022-09-28T04:33:37.289Z,28.1
2022-09-28T04:34:43.857Z,28.3
2022-09-28T04:35:44.764Z,28.3
2022-09-28T04:36:46.976Z,28.4
2022-09-28T04:37:49.471Z,28.2
2022-09-28T04:38:53.381Z,27.9
2022-09-28T04:39:56.071Z,28.2
2022-09-28T04:40:58.599Z,28.4
2022-09-28T04:42:01.366Z,28.5
2022-09-28T04:43:03.566Z,28.5
2022-09-28T04:44:06.045Z,28.3
2022-09-28T04:45:08.538Z,28.2
2022-09-28T04:46:10.867Z,28.1
2022-09-28T04:47:13.847Z,28.2
2022-09-28T04:48:16.325Z,28.2
2022-09-28T04:49:18.694Z,28.4
2022-09-28T04:50:20.575Z,28.5
2022-09-28T04:51:22.781Z,28.4
2022-09-28T04:52:24.976Z,28.1
2022-09-28T04:53:27.470Z,28.5
2022-09-28T04:54:29.701Z,28.1
2022-09-28T04:55:31.375Z,28.6
2022-09-28T04:56:33.855Z,28.1
2022-09-28T04:57:36.419Z,28.2
2022-09-28T04:58:38.351Z,28.3
2022-09-28T04:59:40.263Z,28.4
2022-09-28T05:00:42.785Z,28.3
2022-09-28T05:01:45.545Z,28.3
2022-09-28T05:02:47.790Z,28.4
2022-09-28T05:03:49.696Z,28.4
2022-09-28T05:04:51.921Z,28.2
2022-09-28T05:05:54.112Z,28.2
2022-09-28T05:06:56.314Z,28.5
2022-09-28T05:07:58.806Z,28.2
2022-09-28T05:09:00.747Z,28
2022-09-28T05:10:02.940Z,28.2
2022-09-28T05:11:05.439Z,28.3
2022-09-28T05:12:07.911Z,28.2
2022-09-28T05:13:10.109Z,28.3
2022-09-28T05:14:12.305Z,28.1
2022-09-28T05:15:14.810Z,28.1
2022-09-28T05:16:17.369Z,28.1
2022-09-28T05:17:20.118Z,28
2022-09-28T05:18:22.667Z,28.4
2022-09-28T05:19:25.143Z,28.3
2022-09-28T05:20:27.624Z,28.2
2022-09-28T05:21:28.982Z,28.2
2022-09-28T05:22:31.243Z,28
2022-09-28T05:23:34.591Z,28.1
2022-09-28T05:24:36.842Z,28.2
2022-09-28T05:25:38.787Z,28.2
2022-09-28T05:26:41.294Z,27.9
2022-09-28T05:27:43.486Z,28.2
2022-09-28T05:28:45.972Z,28.1
2022-09-28T05:29:48.439Z,28.1
2022-09-28T05:30:50.361Z,28.3
2022-09-28T05:31:52.895Z,28.2
2022-09-28T05:32:55.757Z,28
2022-09-28T05:33:57.981Z,28.2
2022-09-28T05:35:00.502Z,28.1
2022-09-28T05:36:02.732Z,27.9
2022-09-28T05:37:05.223Z,28
2022-09-28T05:38:07.703Z,28.2
2022-09-28T05:39:10.307Z,28.1
2022-09-28T05:40:12.744Z,28
2022-09-28T05:41:15.470Z,28.1
2022-09-28T05:42:17.688Z,28
2022-09-28T05:43:20.167Z,28.2
2022-09-28T05:44:22.630Z,28
2022-09-28T05:45:25.208Z,28.2
2022-09-28T05:46:28.124Z,28.1
2022-09-28T05:47:30.777Z,28.1
2022-09-28T05:48:32.970Z,28
2022-09-28T05:49:35.483Z,28.2
2022-09-28T05:50:37.681Z,28.1
2022-09-28T05:51:40.165Z,28
2022-09-28T05:52:42.335Z,28.1
2022-09-28T05:53:44.251Z,27.9
2022-09-28T05:54:46.443Z,28.1
2022-09-28T05:55:48.445Z,28
2022-09-28T05:56:50.352Z,28.2
2022-09-28T05:57:52.845Z,28
2022-09-28T05:58:55.331Z,27.9
2022-09-28T05:59:57.269Z,28.3
2022-09-28T06:00:59.562Z,28.1
2022-09-28T06:02:02.273Z,28.1
2022-09-28T06:03:08.621Z,28
2022-09-28T06:04:10.078Z,28
2022-09-28T06:05:12.798Z,28.1
2022-09-28T06:06:14.745Z,28.5
2022-09-28T06:07:17.233Z,28.2
2022-09-28T06:08:19.717Z,28.2
2022-09-28T06:09:25.216Z,28.1
2022-09-28T06:10:26.615Z,28.1
2022-09-28T06:11:29.313Z,28.2
2022-09-28T06:12:31.503Z,28.2
2022-09-28T06:13:33.995Z,28.1
2022-09-28T06:14:36.471Z,28.2
2022-09-28T06:15:38.945Z,28
2022-09-28T06:16:43.769Z,28.2
2022-09-28T06:17:46.413Z,28.3
2022-09-28T06:18:48.626Z,28
2022-09-28T06:19:50.826Z,28.3
2022-09-28T06:20:53.324Z,27.9
2022-09-28T06:21:58.393Z,28.1
2022-09-28T06:23:00.795Z,28.1
2022-09-28T06:24:03.273Z,28.1
2022-09-28T06:25:05.474Z,27.9
2022-09-28T06:26:07.713Z,28
2022-09-28T06:27:10.241Z,28.1
2022-09-28T06:28:12.739Z,27.9
2022-09-28T06:29:19.280Z,28
2022-09-28T06:30:20.229Z,28.1
2022-09-28T06:31:22.267Z,28.3
2022-09-28T06:32:25.156Z,28.2
2022-09-28T06:33:27.349Z,27.9
2022-09-28T06:34:29.565Z,28.1
2022-09-28T06:35:31.783Z,28.2
2022-09-28T06:36:34.353Z,28
2022-09-28T06:37:36.544Z,28
2022-09-28T06:38:38.750Z,28
2022-09-28T06:39:41.234Z,28.2
2022-09-28T06:40:43.242Z,28.1
2022-09-28T06:41:45.795Z,28.3
2022-09-28T06:42:48.337Z,28.2
2022-09-28T06:43:50.824Z,28.2
2022-09-28T06:44:53.053Z,28.1
2022-09-28T06:45:55.388Z,28.2
2022-09-28T06:46:58.250Z,28.1
2022-09-28T06:48:00.739Z,28
2022-09-28T06:49:02.942Z,28.2
2022-09-28T06:50:05.162Z,28
2022-09-28T06:51:07.363Z,28.1
2022-09-28T06:52:09.584Z,28.2
2022-09-28T06:53:12.072Z,28
2022-09-28T06:54:14.005Z,28
2022-09-28T06:55:16.742Z,27.9
2022-09-28T06:56:19.209Z,28
2022-09-28T06:57:21.449Z,28
2022-09-28T06:58:23.967Z,28.1
2022-09-28T06:59:26.471Z,28
2022-09-28T07:00:28.687Z,28.1
2022-09-28T07:01:31.245Z,27.8
2022-09-28T07:02:34.261Z,28
2022-09-28T07:03:37.141Z,27.9
2022-09-28T07:04:39.623Z,27.9
2022-09-28T07:05:41.866Z,28.3
2022-09-28T07:06:43.519Z,27.9
2022-09-28T07:07:45.768Z,28
2022-09-28T07:08:51.243Z,28.2
2022-09-28T07:09:55.201Z,28
2022-09-28T07:10:57.974Z,28.1
2022-09-28T07:11:59.889Z,28.2
2022-09-28T07:13:02.327Z,28.2
2022-09-28T07:14:04.919Z,28
2022-09-28T07:15:07.397Z,28.2
2022-09-28T07:16:09.973Z,28.2
2022-09-28T07:17:14.342Z,28
2022-09-28T07:18:17.297Z,27.9
2022-09-28T07:19:19.923Z,28.1
2022-09-28T07:20:22.130Z,28
2022-09-28T07:21:29.473Z,27.9
2022-09-28T07:22:40.003Z,27.9
2022-09-28T07:23:42.230Z,28.2
2022-09-28T07:24:39.666Z,27.8
2022-09-28T07:25:42.202Z,28
2022-09-28T07:26:44.704Z,28
2022-09-28T07:27:46.661Z,27.9
2022-09-28T07:28:49.177Z,28.2
2022-09-28T07:29:51.422Z,28
2022-09-28T07:30:53.919Z,28
2022-09-28T07:31:56.567Z,28.1
2022-09-28T07:32:59.050Z,28
2022-09-28T07:34:01.299Z,28.3
2022-09-28T07:35:03.503Z,28.2
2022-09-28T07:36:05.777Z,27.8
2022-09-28T07:37:08.298Z,28.2
2022-09-28T07:38:10.772Z,28.1
2022-09-28T07:39:12.696Z,28.2
2022-09-28T07:40:14.918Z,27.9
2022-09-28T07:41:17.808Z,28
2022-09-28T07:42:20.015Z,28.2
2022-09-28T07:43:22.520Z,28.3
2022-09-28T07:44:24.708Z,28
2022-09-28T07:45:27.243Z,28.2
2022-09-28T07:46:29.882Z,28.2
2022-09-28T07:47:34.979Z,27.8
2022-09-28T07:48:37.114Z,28.1
2022-09-28T07:49:39.615Z,27.7
2022-09-28T07:50:42.111Z,27.8
2022-09-28T07:51:44.597Z,28.1
2022-09-28T07:52:47.105Z,27.8
2022-09-28T07:53:49.591Z,28.2
2022-09-28T07:54:52.071Z,28
2022-09-28T07:55:54.541Z,28
2022-09-28T07:56:56.839Z,28.1
2022-09-28T07:57:59.043Z,28.2
2022-09-28T07:59:01.258Z,27.9
2022-09-28T08:00:03.434Z,28
2022-09-28T08:01:06.037Z,28.1
2022-09-28T08:02:09.131Z,27.8
2022-09-28T08:03:11.979Z,28.2
2022-09-28T08:04:14.462Z,28
2022-09-28T08:05:16.660Z,28.1
2022-09-28T08:06:18.862Z,27.9
2022-09-28T08:07:23.786Z,28.2
2022-09-28T08:08:26.348Z,28
2022-09-28T08:09:28.851Z,28
2022-09-28T08:10:31.097Z,27.9
2022-09-28T08:11:33.579Z,28
2022-09-28T08:12:35.807Z,28.3
2022-09-28T08:13:38.281Z,27.9
2022-09-28T08:14:40.771Z,27.9
2022-09-28T08:15:43.279Z,28
2022-09-28T08:16:46.685Z,27.9
2022-09-28T08:17:50.494Z,28.1
2022-09-28T08:18:52.715Z,27.8
2022-09-28T08:19:55.198Z,28.1
2022-09-28T08:20:57.683Z,27.9
2022-09-28T08:22:00.177Z,28.1
2022-09-28T08:23:02.375Z,28
2022-09-28T08:24:04.583Z,28.1
2022-09-28T08:25:06.784Z,27.9
2022-09-28T08:26:13.370Z,27.8
2022-09-28T08:27:14.764Z,28
2022-09-28T08:28:16.990Z,28.1
2022-09-28T08:29:19.483Z,28
2022-09-28T08:30:21.725Z,27.8
2022-09-28T08:31:24.219Z,27.9
2022-09-28T08:32:26.192Z,28.1
2022-09-28T08:33:28.670Z,28
2022-09-28T08:34:30.886Z,27.8
2022-09-28T08:35:33.368Z,28.1
2022-09-28T08:36:35.966Z,28.1
2022-09-28T08:37:37.605Z,28.1
2022-09-28T08:38:39.509Z,27.8
2022-09-28T08:39:41.726Z,28.1
2022-09-28T08:40:44.256Z,27.9
2022-09-28T08:41:46.786Z,28.2
2022-09-28T08:42:49.257Z,28.1
2022-09-28T08:43:51.765Z,28.1
2022-09-28T08:44:53.969Z,28.1
2022-09-28T08:45:55.950Z,28.1
2022-09-28T08:46:58.149Z,28.1
2022-09-28T08:48:00.692Z,28.1
2022-09-28T08:50:08.177Z,28.1
2022-09-28T08:51:10.808Z,28.1
2022-09-28T08:52:13.025Z,28
2022-09-28T08:53:14.933Z,27.9
2022-09-28T08:54:16.879Z,27.9
2022-09-28T08:55:19.411Z,27.9
2022-09-28T08:56:21.643Z,28.2
2022-09-28T08:57:23.850Z,28.2
2022-09-28T08:58:26.053Z,27.9
2022-09-28T08:59:28.568Z,28
2022-09-28T09:00:30.781Z,28
2022-09-28T09:01:33.311Z,28
2022-09-28T09:02:35.950Z,28.1
2022-09-28T09:03:38.772Z,28
2022-09-28T09:04:40.713Z,28
2022-09-28T09:05:42.934Z,28.1
2022-09-28T09:06:45.452Z,27.9
2022-09-28T09:07:47.640Z,28
2022-09-28T09:08:49.883Z,28.1
2022-09-28T09:09:52.099Z,28
2022-09-28T09:10:54.579Z,28.2
2022-09-28T09:11:57.082Z,28.1
2022-09-28T09:12:59.048Z,28.2
2022-09-28T09:14:01.640Z,28
2022-09-28T09:15:03.630Z,28
2022-09-28T09:16:06.149Z,27.9
2022-09-28T09:17:08.351Z,27.8
2022-09-28T09:18:10.839Z,27.8
2022-09-28T09:19:19.281Z,28
2022-09-28T09:20:22.020Z,27.9
2022-09-28T09:21:24.222Z,28
2022-09-28T09:22:26.251Z,28
2022-09-28T09:23:28.179Z,28
2022-09-28T09:24:30.648Z,28.3
2022-09-28T09:25:36.547Z,27.9
2022-09-28T09:26:37.879Z,27.8
2022-09-28T09:27:40.415Z,27.8
2022-09-28T09:28:42.653Z,28.1
2022-09-28T09:29:45.181Z,28
2022-09-28T09:30:47.733Z,27.9
2022-09-28T09:31:50.430Z,28.1
2022-09-28T09:32:51.813Z,27.9
2022-09-28T09:33:54.029Z,28
2022-09-28T09:34:56.278Z,28.1
2022-09-28T09:35:58.773Z,27.9
2022-09-28T09:37:01.258Z,28
2022-09-28T09:38:03.465Z,27.9
2022-09-28T09:39:06.011Z,28
2022-09-28T09:40:08.547Z,28.1
2022-09-28T09:41:11.169Z,28.1
2022-09-28T09:42:14.500Z,27.8
2022-09-28T09:43:16.786Z,28.2
2022-09-28T09:44:19.475Z,28.1
2022-09-28T09:45:22.182Z,28
2022-09-28T09:46:24.287Z,28
2022-09-28T09:47:27.156Z,28.2
2022-09-28T09:48:29.170Z,28
2022-09-28T09:49:31.485Z,28.2
2022-09-28T09:50:33.742Z,28.2
2022-09-28T09:51:36.008Z,28.1
2022-09-28T09:52:39.844Z,28.2
2022-09-28T09:53:43.551Z,28.3
2022-09-28T09:54:45.888Z,27.9
2022-09-28T09:55:48.382Z,28
2022-09-28T09:56:50.346Z,28.2
2022-09-28T09:57:52.568Z,27.9
2022-09-28T09:58:54.849Z,28.1
2022-09-28T09:59:57.089Z,28.1
2022-09-28T10:00:59.675Z,27.9
2022-09-28T10:02:02.584Z,28.1
2022-09-28T10:03:09.587Z,28
2022-09-28T10:04:11.789Z,28.2
2022-09-28T10:05:14.265Z,27.9
2022-09-28T10:06:16.248Z,28.1
2022-09-28T10:07:18.708Z,28
2022-09-28T10:08:21.213Z,27.9
2022-09-28T10:09:23.712Z,27.9
2022-09-28T10:10:25.965Z,28.1
2022-09-28T10:11:28.188Z,28.2
2022-09-28T10:12:30.392Z,28
2022-09-28T10:13:32.570Z,28
2022-09-28T10:14:34.804Z,28.1
2022-09-28T10:15:37.279Z,28.2
2022-09-28T10:16:39.816Z,27.9
2022-09-28T10:17:42.320Z,28
2022-09-28T10:18:44.858Z,28.3
2022-09-28T10:19:46.764Z,28.1
2022-09-28T10:20:48.988Z,28.3
2022-09-28T10:21:51.526Z,28
2022-09-28T10:22:53.995Z,27.9
2022-09-28T10:23:56.198Z,27.9
2022-09-28T10:24:58.672Z,28
2022-09-28T10:26:00.904Z,28.2
2022-09-28T10:27:03.370Z,27.9
2022-09-28T10:28:05.850Z,28
2022-09-28T10:29:07.476Z,28.3
2022-09-28T10:30:09.699Z,28.1
2022-09-28T10:31:11.907Z,28.1
2022-09-28T10:32:14.381Z,28.3
2022-09-28T10:33:17.060Z,28
2022-09-28T10:34:19.458Z,28.1
2022-09-28T10:35:22.135Z,28.2
2022-09-28T10:36:23.767Z,27.9
2022-09-28T10:37:26.095Z,27.9
2022-09-28T10:38:28.278Z,27.8
2022-09-28T10:39:30.198Z,28.1
2022-09-28T10:40:32.707Z,28.1
2022-09-28T10:41:35.581Z,28.1
2022-09-28T10:42:37.766Z,28.2
2022-09-28T10:43:40.242Z,28
2022-09-28T10:44:47.187Z,28
2022-09-28T10:45:49.443Z,28
2022-09-28T10:46:51.936Z,27.9
2022-09-28T10:47:54.428Z,28
2022-09-28T10:48:56.382Z,27.9
2022-09-28T10:49:58.859Z,27.8
2022-09-28T10:51:00.788Z,27.9
2022-09-28T10:52:03.277Z,28.2
2022-09-28T10:53:05.792Z,27.9
2022-09-28T10:54:07.692Z,28
2022-09-28T10:55:10.187Z,28.1
2022-09-28T10:56:12.663Z,27.9
2022-09-28T10:57:14.891Z,27.9
2022-09-28T10:58:17.374Z,27.9
2022-09-28T10:59:19.846Z,27.8
2022-09-28T11:00:22.323Z,28
2022-09-28T11:01:24.378Z,27.8
2022-09-28T11:02:27.484Z,27.6
2022-09-28T11:03:33.024Z,28.2
2022-09-28T11:04:35.521Z,27.7
2022-09-28T11:05:37.994Z,27.8
2022-09-28T11:06:40.468Z,27.8
2022-09-28T11:07:42.670Z,27.9
2022-09-28T11:08:45.420Z,27.7
2022-09-28T11:09:48.749Z,27.9
2022-09-28T11:10:51.357Z,27.9
2022-09-28T11:11:53.566Z,27.9
2022-09-28T11:12:55.786Z,27.9
2022-09-28T11:13:58.000Z,27.9
2022-09-28T11:15:00.210Z,27.8
2022-09-28T11:16:02.407Z,27.9
2022-09-28T11:17:04.665Z,28.1
2022-09-28T11:18:07.576Z,27.9
2022-09-28T11:19:10.133Z,28
2022-09-28T11:20:12.774Z,27.9
2022-09-28T11:21:15.265Z,27.9
2022-09-28T11:22:17.747Z,28
2022-09-28T11:23:19.921Z,27.7
2022-09-28T11:24:22.426Z,27.6
2022-09-28T11:25:26.914Z,27.9
2022-09-28T11:26:29.536Z,28
2022-09-28T11:27:32.017Z,27.8
2022-09-28T11:28:34.223Z,27.8
2022-09-28T11:29:36.407Z,28.1
2022-09-28T11:30:38.946Z,27.8
2022-09-28T11:31:41.341Z,27.7
2022-09-28T11:32:43.851Z,27.9
2022-09-28T11:33:46.054Z,27.8
2022-09-28T11:34:58.928Z,28.1
2022-09-28T11:35:53.247Z,27.9
2022-09-28T11:36:58.393Z,28.1
2022-09-28T11:38:00.489Z,28.1
2022-09-28T11:39:02.421Z,27.8
2022-09-28T11:40:04.671Z,28
2022-09-28T11:41:07.555Z,27.9
2022-09-28T11:42:12.986Z,28.3
2022-09-28T11:43:16.563Z,28
2022-09-28T11:44:19.556Z,27.9
2022-09-28T11:45:22.228Z,28
2022-09-28T11:46:24.230Z,28
2022-09-28T11:47:27.080Z,28
2022-09-28T11:48:29.301Z,27.9
2022-09-28T11:49:31.241Z,27.8
2022-09-28T11:50:33.727Z,28.1
2022-09-28T11:51:35.733Z,27.8
2022-09-28T11:52:38.229Z,28
2022-09-28T11:53:40.438Z,27.9
2022-09-28T11:54:42.638Z,27.7
2022-09-28T11:55:44.884Z,28.1
2022-09-28T11:56:47.373Z,27.9
2022-09-28T11:57:49.849Z,27.9
2022-09-28T11:58:52.036Z,27.9
2022-09-28T11:59:54.729Z,27.5
2022-09-28T12:00:56.654Z,27.9
2022-09-28T12:01:59.196Z,28
2022-09-28T12:03:02.258Z,28
2022-09-28T12:04:05.323Z,27.8
2022-09-28T12:05:07.792Z,27.8
2022-09-28T12:06:10.003Z,28
2022-09-28T12:07:12.494Z,27.7
2022-09-28T12:08:14.756Z,28.1
2022-09-28T12:09:17.233Z,27.8
2022-09-28T12:10:20.277Z,27.8
2022-09-28T12:11:22.555Z,28.2
2022-09-28T12:12:24.786Z,27.7
2022-09-28T12:13:27.260Z,27.9
2022-09-28T12:14:29.752Z,27.9
2022-09-28T12:15:38.304Z,27.9
2022-09-28T12:17:42.044Z,27.8
2022-09-28T12:18:44.906Z,28.2
2022-09-28T12:19:47.203Z,27.8
2022-09-28T12:20:49.688Z,28.2
2022-09-28T12:21:51.626Z,27.8
2022-09-28T12:22:54.105Z,27.8
2022-09-28T12:23:56.057Z,28.1
2022-09-28T12:24:57.969Z,27.8
2022-09-28T12:26:00.175Z,28
2022-09-28T12:27:02.708Z,27.9
2022-09-28T12:28:04.920Z,27.7
2022-09-28T12:29:07.418Z,27.9
2022-09-28T12:30:09.894Z,28
2022-09-28T12:31:12.464Z,27.9
2022-09-28T12:32:15.402Z,27.7
2022-09-28T12:33:17.630Z,28
2022-09-28T12:34:19.854Z,28
2022-09-28T12:35:22.097Z,28.1
2022-09-28T12:36:24.614Z,28.1
2022-09-28T12:37:26.821Z,27.8
2022-09-28T12:38:28.762Z,27.8
2022-09-28T12:39:47.231Z,28
2022-09-28T12:40:36.307Z,28.2
2022-09-28T12:41:38.300Z,28
2022-09-28T12:42:40.552Z,28.1
2022-09-28T12:43:43.033Z,28.2
2022-09-28T12:44:45.035Z,27.7
2022-09-28T12:46:10.283Z,28.2
2022-09-28T12:46:52.585Z,28.3
2022-09-28T12:47:55.246Z,27.9
2022-09-28T12:49:36.989Z,27.9
2022-09-28T12:51:07.446Z,28.1
2022-09-28T12:52:09.956Z,28.2
2022-09-28T12:53:11.620Z,28.1
2022-09-28T12:54:14.133Z,28
2022-09-28T12:55:16.613Z,27.9
2022-09-28T12:56:20.828Z,28
2022-09-28T12:57:24.079Z,27.9
2022-09-28T12:58:26.608Z,28
2022-09-28T12:59:28.808Z,28.1
2022-09-28T13:00:31.297Z,28.1
2022-09-28T13:01:33.532Z,27.8
2022-09-28T13:02:36.172Z,28
2022-09-28T13:03:38.943Z,28.2
2022-09-28T13:04:41.153Z,28.2
2022-09-28T13:05:43.335Z,27.9
2022-09-28T13:06:45.261Z,27.9
2022-09-28T13:07:47.518Z,28
2022-09-28T13:08:50.009Z,28.3
2022-09-28T13:09:52.229Z,28
2022-09-28T13:10:54.168Z,28.1
2022-09-28T13:11:56.502Z,28.1
2022-09-28T13:12:58.726Z,28
2022-09-28T13:14:01.242Z,28
2022-09-28T13:15:03.452Z,27.7
2022-09-28T13:16:05.975Z,28.2
2022-09-28T13:17:08.631Z,28.1
2022-09-28T13:18:10.840Z,28.1
2022-09-28T13:19:13.326Z,28.1
2022-09-28T13:20:16.172Z,28.1
2022-09-28T13:21:18.378Z,27.9
2022-09-28T13:22:20.594Z,28.1
2022-09-28T13:23:22.793Z,28.2
2022-09-28T13:24:32.535Z,28
2022-09-28T13:25:30.256Z,28.2
2022-09-28T13:26:32.771Z,27.8
2022-09-28T13:27:34.743Z,28.1
2022-09-28T13:28:36.655Z,28
2022-09-28T13:30:41.302Z,28
2022-09-28T13:31:43.701Z,27.9
2022-09-28T13:32:45.957Z,27.8
2022-09-28T13:33:48.458Z,28.2
2022-09-28T13:34:50.949Z,28.1
2022-09-28T13:35:53.166Z,28.1
2022-09-28T13:36:55.368Z,28.2
2022-09-28T13:37:57.545Z,28.1
2022-09-28T13:38:59.789Z,27.9
2022-09-28T13:40:02.498Z,28.2
2022-09-28T13:41:05.219Z,27.7
2022-09-28T13:42:08.245Z,28.2
2022-09-28T13:43:10.812Z,28.1
2022-09-28T13:44:17.444Z,28.1
2022-09-28T13:45:20.706Z,28
2022-09-28T13:46:23.402Z,27.9
2022-09-28T13:47:26.416Z,28
2022-09-28T13:48:28.703Z,28
2022-09-28T13:49:31.189Z,27.9
2022-09-28T13:50:33.745Z,27.9
2022-09-28T13:51:36.260Z,28.1
2022-09-28T13:52:38.764Z,28.1
2022-09-28T13:53:41.286Z,28
2022-09-28T13:54:43.616Z,28
2022-09-28T13:55:46.163Z,28.2
2022-09-28T13:56:48.389Z,27.8
2022-09-28T13:57:50.951Z,27.9
2022-09-28T13:58:53.151Z,28.1
2022-09-28T13:59:55.672Z,27.9
2022-09-28T14:00:58.275Z,28.2
2022-09-28T14:02:04.248Z,28.2
2022-09-28T14:03:05.583Z,28.2
2022-09-28T14:04:08.329Z,28
2022-09-28T14:05:10.349Z,28
2022-09-28T14:06:12.926Z,28.2
2022-09-28T14:07:15.001Z,28
2022-09-28T14:08:17.973Z,28